Time;durP1;ratioP1;P1;durP2;ratioP2;P2;SDS_P1;SDS_P2;PMS_P1;PMS_P2;Temp;Humidity;BMP_temperature;BMP_pressure;BME280_temperature;BME280_humidity;BME280_pressure;Samples;Min_cycle;Max_cycle;Signal;HPM_P1;HPM_P2
2021/11/12 00:12:04;;;;;;;136.52;69.07;;;;;;;-0.10;74.87;101117.14;1904493;92;27690;-69
2021/11/12 00:14:55;;;;;;;148.38;68.92;;;;;;;-0.11;74.91;101112.73;1915789;91;29502;-69
2021/11/12 00:17:57;;;;;;;172.75;83.65;;;;;;;-0.11;74.79;101107.89;1909235;93;30580;-68
2021/11/12 00:21:01;;;;;;;176.82;88.90;;;;;;;-0.13;74.85;101101.72;1910625;93;33846;-69
2021/11/12 00:24:03;;;;;;;187.35;86.17;;;;;;;-0.16;74.96;101102.14;1951021;90;29330;-69
2021/11/12 00:27:07;;;;;;;205.77;92.37;;;;;;;-0.18;75.03;101101.28;1907953;93;27826;-68
2021/11/12 00:39:47;;;;;;;220.07;90.62;;;;;;;-0.22;75.28;101098.16;1979677;89;29339;-70
2021/11/12 00:43:05;;;;;;;243.55;95.47;;;;;;;-0.22;75.31;101105.17;1979650;89;27721;-71
2021/11/12 00:45:55;;;;;;;220.25;91.92;;;;;;;-0.25;75.42;101103.41;1995797;88;29445;-71
2021/11/12 00:48:54;;;;;;;224.88;89.65;;;;;;;-0.24;75.56;101101.22;2004235;87;31019;-69
2021/11/12 00:51:56;;;;;;;199.87;86.97;;;;;;;-0.24;75.60;101099.91;1979567;89;34013;-69
2021/11/12 00:54:57;;;;;;;225.18;90.12;;;;;;;-0.23;75.62;101100.35;1979982;88;29344;-71
2021/11/12 00:57:59;;;;;;;215.68;87.97;;;;;;;-0.23;75.71;101100.35;1994433;88;28202;-71
2021/11/12 01:01:03;;;;;;;211.32;86.87;;;;;;;-0.23;75.72;101096.41;2000237;88;29713;-67
2021/11/12 01:04:08;;;;;;;221.00;88.10;;;;;;;-0.23;75.71;101100.77;2004647;88;31169;-69
2021/11/12 01:07:09;;;;;;;;;;;;;;;-0.23;75.69;101101.67;1993154;88;32963;-68
2021/11/12 01:10:14;;;;;;;216.35;88.70;;;;;;;-0.23;75.76;101100.77;2010333;88;29276;-69
2021/11/12 01:13:16;;;;;;;229.57;89.90;;;;;;;-0.24;75.88;101101.64;2003328;88;27711;-68
2021/11/12 01:16:18;;;;;;;226.60;85.95;;;;;;;-0.25;75.90;101101.22;2002994;88;29827;-68
2021/11/12 01:19:20;;;;;;;187.82;81.32;;;;;;;-0.25;75.91;101110.44;1987225;88;31041;-68
2021/11/12 01:22:22;;;;;;;196.32;81.78;;;;;;;-0.27;75.89;101104.27;1966448;88;33847;-73
2021/11/12 01:25:24;;;;;;;197.60;70.87;;;;;;;-0.29;75.90;101109.95;1960267;90;29369;-70
2021/11/12 01:28:26;;;;;;;162.53;69.45;;;;;;;-0.31;75.99;101098.98;1962476;88;27757;-71
2021/11/12 01:31:28;;;;;;;139.52;63.78;;;;;;;-0.29;76.04;101106.01;2016717;87;28714;-69
2021/11/12 01:34:30;;;;;;;146.60;67.97;;;;;;;-0.28;76.07;101103.82;2030444;87;31127;-72
2021/11/12 01:37:33;;;;;;;151.82;62.93;;;;;;;-0.29;76.01;101101.61;2058517;86;32940;-68
2021/11/12 01:40:36;;;;;;;162.82;63.10;;;;;;;-0.31;76.01;101098.98;2022277;87;29405;-69
2021/11/12 01:43:42;;;;;;;125.47;60.95;;;;;;;-0.32;75.97;101106.84;2056766;85;27582;-68
2021/11/12 01:49:46;;;;;;;112.57;55.60;;;;;;;-0.35;76.13;101101.58;2028361;87;31851;-69
2021/11/12 01:52:48;;;;;;;122.58;55.43;;;;;;;-0.35;76.25;101097.17;2013967;87;33843;-68
2021/11/12 01:55:57;;;;;;;124.42;57.10;;;;;;;-0.34;76.34;101101.58;2015075;88;29337;-69
2021/11/12 02:02:08;;;;;;;125.15;53.73;;;;;;;-0.36;76.19;101094.09;2010448;88;28639;-70
2021/11/12 02:05:11;;;;;;;128.57;53.20;;;;;;;-0.38;76.18;101092.33;2013930;87;32038;-68
2021/11/12 02:08:13;;;;;;;134.52;51.02;;;;;;;-0.40;76.27;101089.67;2013573;88;32980;-68
2021/11/12 02:11:16;;;;;;;135.90;50.80;;;;;;;-0.39;76.38;101074.33;2007012;88;29337;-68
2021/11/12 02:14:20;;;;;;;120.77;51.30;;;;;;;-0.38;76.54;101069.95;2001983;88;27717;-68
2021/11/12 02:17:26;;;;;;;117.33;53.13;;;;;;;-0.39;76.47;101069.06;2004894;88;28659;-68
2021/11/12 02:20:36;;;;;;;119.53;53.90;;;;;;;-0.38;76.47;101068.64;2024595;87;31214;-69
2021/11/12 02:23:39;;;;;;;119.80;54.80;;;;;;;-0.38;76.40;101068.64;2045544;86;33074;-68
2021/11/12 02:26:43;;;;;;;115.70;55.10;;;;;;;-0.41;76.43;101070.80;2015876;86;29365;-67
2021/11/12 02:29:50;;;;;;;119.28;55.12;;;;;;;-0.42;76.35;101073.01;2002352;88;27671;-67
2021/11/12 02:33:06;;;;;;;123.05;54.75;;;;;;;-0.44;76.34;101076.48;2006463;87;29892;-66
2021/11/12 02:36:15;;;;;;;133.25;60.40;;;;;;;-0.47;76.24;101071.63;2006104;88;31097;-67
2021/11/12 02:39:17;;;;;;;124.92;56.23;;;;;;;-0.53;76.17;101072.91;2022584;87;32966;-70
2021/11/12 02:42:21;;;;;;;106.67;50.98;;;;;;;-0.55;76.19;101075.97;2009071;87;30121;-68
2021/11/12 02:45:23;;;;;;;108.90;50.40;;;;;;;-0.59;76.21;101069.35;2055090;82;27751;-68
2021/11/12 02:48:25;;;;;;;98.60;47.83;;;;;;;-0.61;76.25;101069.31;2108864;84;30003;-68
2021/11/12 02:51:31;;;;;;;102.27;48.78;;;;;;;-0.64;76.29;101068.87;2112555;84;30977;-68
2021/11/12 02:54:33;;;;;;;111.17;50.25;;;;;;;-0.65;76.37;101067.52;2081028;84;34828;-70
2021/11/12 02:57:36;;;;;;;96.22;46.25;;;;;;;-0.68;76.44;101072.33;2080541;85;29505;-68
2021/11/12 03:00:40;;;;;;;103.78;47.33;;;;;;;-0.67;76.35;101077.17;2081751;85;27809;-70
2021/11/12 03:03:42;;;;;;;109.65;49.25;;;;;;;-0.70;76.35;101071.43;2116552;84;28631;-69
2021/11/12 03:06:44;;;;;;;101.95;48.00;;;;;;;-0.69;76.46;101077.14;2127631;83;31049;-70
2021/11/12 03:09:46;;;;;;;104.55;49.10;;;;;;;-0.69;76.47;101077.14;2133802;83;33087;-69
2021/11/12 03:12:48;;;;;;;103.83;46.63;;;;;;;-0.68;76.50;101080.67;2116522;83;29305;-71
2021/11/12 03:15:50;;;;;;;95.38;46.58;;;;;;;-0.66;76.48;101090.78;2116740;83;27699;-69
2021/11/12 03:18:55;;;;;;;107.03;47.20;;;;;;;-0.65;76.53;101089.88;2116003;84;28502;-69
2021/11/12 03:22:04;;;;;;;100.12;48.63;;;;;;;-0.63;76.60;101090.37;2057100;85;31051;-69
2021/11/12 03:25:10;;;;;;;102.30;48.33;;;;;;;-0.60;76.67;101080.74;2101605;83;32999;-69
2021/11/12 04:00:57;;;;;;;119.30;53.28;;;;;;;-0.82;76.30;101084.47;2043555;86;29436;-69
2021/11/12 04:07:27;;;;;;;119.42;53.02;;;;;;;-0.89;76.32;101084.84;1960009;89;28781;-68
2021/11/12 04:50:08;;;;;;;114.25;52.48;;;;;;;-1.46;77.07;101096.90;2133850;82;29407;-73
2021/11/12 05:25:55;;;;;;;119.33;56.92;;;;;;;-0.72;77.49;101106.50;2004100;87;33017;-74
2021/11/12 05:26:15;;;;;;;109.00;55.90;;;;;;;-0.50;77.61;101101.90;2030167;87;27843;-74
2021/11/12 05:51:35;;;;;;;123.30;60.63;;;;;;;0.23;77.39;101107.70;1844989;95;33044;-73
2021/11/12 05:57:53;;;;;;;110.95;55.00;;;;;;;0.35;77.25;101128.40;1946139;91;27836;-67
2021/11/12 06:00:55;;;;;;;119.17;55.03;;;;;;;0.39;77.31;101128.87;1925199;90;28901;-71
2021/11/12 06:03:57;;;;;;;109.45;55.60;;;;;;;0.45;77.33;101136.80;1920506;92;30549;-73
2021/11/12 06:07:00;;;;;;;119.20;58.33;;;;;;;0.49;77.37;101141.22;1951487;91;32977;-68
2021/11/12 06:10:03;;;;;;;123.82;58.30;;;;;;;0.54;77.31;101132.00;1932120;89;29359;-73
2021/11/12 06:13:05;;;;;;;113.80;59.55;;;;;;;0.60;77.33;101130.28;2008825;86;27860;-68
2021/11/12 06:16:06;;;;;;;130.03;59.35;;;;;;;0.68;77.48;101127.67;2058965;85;29660;-73
2021/11/12 06:19:08;;;;;;;121.92;60.43;;;;;;;0.75;77.44;101124.20;2059159;86;31014;-73
2021/11/12 06:22:10;;;;;;;119.42;61.77;;;;;;;0.81;77.44;101124.66;2059376;86;33010;-73
2021/11/12 06:25:12;;;;;;;122.05;61.70;;;;;;;0.89;77.47;101118.09;2059917;85;30134;-72
2021/11/12 06:28:14;;;;;;;129.12;63.45;;;;;;;0.98;77.48;101113.30;2059779;85;27694;-73
2021/11/12 06:31:21;;;;;;;142.60;66.00;;;;;;;1.07;77.54;101109.38;2058252;86;29493;-75
2021/11/12 06:34:22;;;;;;;137.22;67.62;;;;;;;1.14;77.44;101112.45;2032535;86;31242;-68
2021/11/12 06:37:24;;;;;;;136.03;64.10;;;;;;;1.22;77.46;101113.80;2075957;85;32998;-72
2021/11/12 06:40:26;;;;;;;129.80;63.85;;;;;;;1.29;77.50;101116.90;2085607;85;30150;-68
2021/11/12 06:43:31;;;;;;;136.35;63.83;;;;;;;1.37;77.45;101122.19;2078026;85;27644;-72
2021/11/12 06:53:14;;;;;;;160.30;67.85;;;;;;;1.60;77.60;101119.58;2102540;84;33621;-66
2021/11/12 06:56:19;;;;;;;158.35;65.83;;;;;;;1.67;77.58;101125.28;2122114;83;29424;-70
2021/11/12 06:59:21;;;;;;;143.32;66.37;;;;;;;1.73;77.59;101127.08;2112968;83;27747;-67
2021/11/12 07:02:25;;;;;;;150.38;66.47;;;;;;;1.77;77.53;101123.53;2121780;83;29505;-67
2021/11/12 07:05:27;;;;;;;161.82;68.85;;;;;;;1.82;77.63;101123.09;2121083;83;31179;-70
2021/11/12 07:08:29;;;;;;;168.62;68.67;;;;;;;1.91;77.72;101120.00;2102403;84;32974;-67
2021/11/12 07:11:31;;;;;;;144.75;67.30;;;;;;;1.98;77.73;101121.77;2120056;83;29347;-67
2021/11/12 07:14:33;;;;;;;167.65;70.20;;;;;;;2.06;77.74;101119.11;2123214;83;27722;-68
2021/11/12 07:17:35;;;;;;;157.18;65.08;;;;;;;2.15;77.61;101124.83;2101278;84;28088;-67
2021/11/12 07:20:37;;;;;;;166.05;68.57;;;;;;;2.19;77.58;101124.81;2119361;83;32177;-67
2021/11/12 07:23:39;;;;;;;153.23;66.77;;;;;;;2.25;77.40;101122.17;2122910;82;32948;-70
2021/11/12 07:26:41;;;;;;;146.98;68.60;;;;;;;2.28;77.31;101125.24;2121484;83;28727;-70
2021/11/12 07:29:45;;;;;;;153.02;65.42;;;;;;;2.33;77.46;101117.29;2121034;83;27675;-65
2021/11/12 07:32:48;;;;;;;165.03;68.42;;;;;;;2.42;77.54;101110.67;2121366;83;28696;-76
2021/11/12 07:36:01;;;;;;;154.40;66.95;;;;;;;2.54;77.48;101107.98;2122835;82;31098;-73
2021/11/12 07:39:04;;;;;;;147.40;65.95;;;;;;;2.65;77.64;101111.92;2120687;83;33805;-71
2021/11/12 07:42:11;;;;;;;151.25;65.80;;;;;;;2.78;77.61;101115.41;2122847;83;29699;-72
2021/11/12 07:48:17;;;;;;;141.57;63.10;;;;;;;3.03;77.42;101121.47;2043773;86;29072;-65
2021/11/12 07:51:19;;;;;;;144.90;65.95;;;;;;;3.14;77.41;101119.19;2043838;87;31465;-64
2021/11/12 07:54:22;;;;;;;150.07;67.42;;;;;;;3.25;77.22;101116.02;2047719;85;33381;-64
2021/11/12 07:57:25;;;;;;;153.47;71.25;;;;;;;3.34;77.02;101111.11;2074785;85;30143;-66
2021/11/12 08:00:27;;;;;;;162.80;70.67;;;;;;;3.42;76.97;101101.79;2043946;86;27725;-64
2021/11/12 08:03:29;;;;;;;153.70;66.53;;;;;;;3.54;77.17;101100.83;2043470;87;29947;-63
2021/11/12 08:06:32;;;;;;;145.05;65.20;;;;;;;3.66;77.05;101106.02;2043501;87;31890;-65
2021/11/12 08:09:50;;;;;;;141.75;66.37;;;;;;;3.77;76.95;101109.48;2043332;87;34156;-61
2021/11/12 08:12:55;;;;;;;150.05;68.65;;;;;;;3.82;76.69;101104.14;2038503;87;30540;-65
2021/11/12 08:22:10;;;;;;;123.92;64.80;;;;;;;4.22;76.77;101110.38;2043295;86;32288;-64
2021/11/12 08:25:19;;;;;;;121.92;63.50;;;;;;;4.34;76.57;101107.19;2039989;84;33852;-62
2021/11/12 08:28:28;;;;;;;124.27;64.20;;;;;;;4.54;76.77;101113.16;2058554;85;29484;-62
2021/11/12 08:31:35;;;;;;;124.72;63.23;;;;;;;4.76;76.67;101110.69;2101391;84;27634;-62
2021/11/12 08:41:05;;;;;;;117.57;62.93;;;;;;;5.40;76.17;101098.73;2073944;85;34115;-62
2021/11/12 08:44:06;;;;;;;114.80;61.18;;;;;;;5.58;75.85;101090.48;2071716;85;30513;-63
2021/11/12 08:50:17;;;;;;;105.67;59.35;;;;;;;5.83;75.38;101094.52;2068636;86;29532;-63
2021/11/12 08:53:18;;;;;;;109.78;56.42;;;;;;;5.98;75.28;101099.56;2068809;86;31402;-62
2021/11/12 08:56:22;;;;;;;105.60;57.58;;;;;;;6.11;75.06;101090.95;2068564;86;33732;-63
2021/11/12 08:59:24;;;;;;;103.72;55.85;;;;;;;6.23;75.07;101090.72;2066469;86;30543;-63
2021/11/12 09:02:26;;;;;;;106.43;55.83;;;;;;;6.38;74.75;101081.54;2059618;86;27761;-63
2021/11/12 09:05:30;;;;;;;97.92;54.75;;;;;;;6.51;74.46;101078.19;2036318;87;29910;-63
2021/11/12 09:08:34;;;;;;;102.27;57.48;;;;;;;6.60;74.31;101073.13;2036274;87;32234;-62
2021/11/12 09:11:36;;;;;;;103.23;56.20;;;;;;;6.63;74.10;101066.42;2057423;86;33121;-62
2021/11/12 09:14:46;;;;;;;112.70;64.05;;;;;;;6.74;74.11;101069.30;2074923;85;30547;-64
2021/11/12 09:17:46;;;;;;;109.17;64.37;;;;;;;6.83;74.08;101065.13;2083394;85;28231;-63
2021/11/12 09:20:53;;;;;;;106.15;60.88;;;;;;;6.90;73.54;101061.40;2056125;85;28788;-63
2021/11/12 09:23:57;;;;;;;100.38;60.45;;;;;;;6.93;73.60;101063.14;2047990;86;32262;-62
2021/11/12 09:26:59;;;;;;;125.77;77.20;;;;;;;6.95;73.40;101059.98;2048531;86;33026;-63
2021/11/12 09:30:04;;;;;;;103.05;60.15;;;;;;;6.99;73.44;101056.31;2049494;85;30492;-62
2021/11/12 09:33:07;;;;;;;98.72;56.42;;;;;;;7.08;73.56;101050.80;2047599;86;27729;-62
2021/11/12 09:36:10;;;;;;;99.62;55.78;;;;;;;7.25;73.61;101047.73;2048861;86;28381;-62
2021/11/12 09:39:12;;;;;;;95.72;56.98;;;;;;;7.45;73.42;101052.56;2048481;86;31849;-63
2021/11/12 09:42:14;;;;;;;93.65;57.25;;;;;;;7.59;73.05;101054.04;2047919;86;33826;-64
2021/11/12 09:45:18;;;;;;;99.62;56.70;;;;;;;7.72;73.18;101058.58;2066477;85;30548;-63
2021/11/12 09:48:23;;;;;;;94.37;55.95;;;;;;;7.81;72.75;101062.37;2131767;82;27721;-65
2021/11/12 09:51:25;;;;;;;96.20;55.85;;;;;;;7.94;72.25;101052.70;2137118;83;29710;-65
2021/11/12 09:54:28;;;;;;;97.57;56.63;;;;;;;7.87;71.94;101047.52;2137218;83;31404;-68
2021/11/12 09:57:30;;;;;;;94.30;54.15;;;;;;;7.99;72.61;101039.65;2109481;83;33678;-69
2021/11/12 10:00:34;;;;;;;98.62;55.48;;;;;;;8.12;72.44;101037.53;2101376;84;30441;-69
2021/11/12 10:03:44;;;;;;;93.60;54.75;;;;;;;8.23;71.93;101036.34;2101517;84;27665;-64
2021/11/12 10:06:44;;;;;;;95.07;53.98;;;;;;;8.30;71.81;101026.78;2101879;83;28785;-64
2021/11/12 10:09:50;;;;;;;88.00;52.25;;;;;;;8.35;71.37;101028.02;2101121;84;31943;-62
2021/11/12 10:12:54;;;;;;;91.63;50.45;;;;;;;8.40;71.61;101026.54;2092131;84;33047;-69
2021/11/12 10:16:17;;;;;;;81.40;47.00;;;;;;;8.47;71.46;101018.75;2109390;83;34890;-66
2021/11/12 10:19:20;;;;;;;85.95;50.70;;;;;;;8.56;71.25;101010.52;2136982;83;27700;-62
2021/11/12 10:22:25;;;;;;;83.47;49.75;;;;;;;8.59;70.87;101010.43;2137546;83;28818;-66
2021/11/12 10:25:27;;;;;;;86.20;48.38;;;;;;;8.61;71.16;100999.21;2136190;83;31964;-62
2021/11/12 10:28:42;;;;;;;83.60;49.27;;;;;;;8.68;70.56;100996.37;2101003;84;34164;-61
2021/11/12 10:31:49;;;;;;;87.22;49.50;;;;;;;8.66;70.76;100987.94;2101364;84;29442;-61
2021/11/12 10:34:54;;;;;;;87.25;52.00;;;;;;;8.69;70.63;100984.77;2101426;84;27708;-61
2021/11/12 10:38:10;;;;;;;88.37;50.23;;;;;;;8.69;70.52;100982.09;2124747;83;29650;-62
2021/11/12 10:41:24;;;;;;;80.53;48.17;;;;;;;8.68;70.49;100982.56;2101429;84;30469;-61
2021/11/12 10:44:29;;;;;;;87.12;50.98;;;;;;;8.53;69.89;100973.21;2101478;83;33109;-60
2021/11/12 10:47:33;;;;;;;83.82;47.08;;;;;;;8.44;70.30;100964.12;2111604;83;30155;-60
2021/11/12 10:50:40;;;;;;;77.62;46.02;;;;;;;8.41;70.25;100954.39;2123375;83;27640;-60
2021/11/12 10:53:51;;;;;;;75.78;44.85;;;;;;;8.41;70.46;100949.05;2085519;84;28865;-61
2021/11/12 10:56:53;;;;;;;69.92;41.48;;;;;;;8.47;70.09;100959.56;2095394;83;32138;-61
2021/11/12 11:00:07;;;;;;;64.92;39.55;;;;;;;8.59;70.40;100953.45;2147399;82;34140;-61
2021/11/12 11:03:15;;;;;;;67.72;39.50;;;;;;;8.68;69.89;100951.84;2084691;85;29703;-61
2021/11/12 11:06:23;;;;;;;64.37;39.40;;;;;;;8.78;69.51;100951.06;2130612;83;27705;-61
2021/11/12 11:09:39;;;;;;;73.87;41.53;;;;;;;8.83;69.53;100945.13;2147952;82;28656;-61
2021/11/12 11:12:44;;;;;;;72.67;42.23;;;;;;;8.99;69.94;100940.62;2059842;84;31569;-61
2021/11/12 11:16:07;;;;;;;80.90;46.68;;;;;;;9.21;69.97;100933.65;2056416;84;33669;-62
2021/11/12 11:19:11;;;;;;;67.20;40.20;;;;;;;9.34;69.21;100936.79;2122692;83;29808;-61
2021/11/12 11:22:15;;;;;;;65.87;38.80;;;;;;;9.42;68.82;100929.84;2090451;83;28000;-61
2021/11/12 11:25:16;;;;;;;67.67;39.10;;;;;;;9.50;68.86;100921.06;2130368;83;29122;-61
2021/11/12 11:28:19;;;;;;;65.87;38.60;;;;;;;9.63;68.73;100912.16;2130134;83;31307;-61
2021/11/12 11:31:21;;;;;;;61.00;38.83;;;;;;;9.75;68.35;100909.95;2130341;83;33807;-60
2021/11/12 11:34:24;;;;;;;61.28;38.40;;;;;;;9.79;67.83;100905.77;2107097;83;30518;-61
2021/11/12 11:37:26;;;;;;;63.42;38.35;;;;;;;9.83;67.92;100902.05;2123160;83;27723;-61
2021/11/12 11:40:28;;;;;;;67.27;40.50;;;;;;;9.85;67.51;100900.20;2103098;84;29886;-60
2021/11/12 11:43:31;;;;;;;65.05;38.70;;;;;;;9.88;67.39;100896.08;2122179;83;32363;-61
2021/11/12 11:46:38;;;;;;;63.55;39.05;;;;;;;9.98;67.80;100892.59;2130348;83;32979;-61
2021/11/12 11:49:39;;;;;;;61.28;38.48;;;;;;;10.02;66.80;100887.98;2140580;83;29599;-61
2021/11/12 11:52:41;;;;;;;65.32;39.85;;;;;;;10.04;66.78;100884.31;2136171;83;27616;-61
2021/11/12 11:55:43;;;;;;;60.70;37.00;;;;;;;10.09;66.97;100881.48;2109969;84;29102;-61
2021/11/12 11:58:49;;;;;;;63.60;39.63;;;;;;;10.14;66.60;100878.63;2109725;84;31965;-65
2021/11/12 12:01:54;;;;;;;62.38;39.80;;;;;;;10.16;65.95;100868.73;2135095;83;33748;-61
2021/11/12 12:04:58;;;;;;;62.73;40.05;;;;;;;10.14;66.29;100863.89;2103065;84;30541;-61
2021/11/12 12:08:00;;;;;;;64.62;40.33;;;;;;;10.17;66.50;100857.09;2135239;83;27604;-61
2021/11/12 12:11:20;;;;;;;61.92;38.88;;;;;;;10.17;66.19;100865.98;2130181;83;30010;-61
2021/11/12 12:14:25;;;;;;;66.02;38.60;;;;;;;10.21;66.14;100860.51;2147696;82;32189;-61
2021/11/12 12:17:27;;;;;;;61.42;39.40;;;;;;;10.26;66.26;100852.70;2116557;82;33017;-61
2021/11/12 12:41:17;;;;;;;60.28;37.65;;;;;;;9.86;64.85;100835.04;2135253;83;27608;-72
2021/11/12 13:21:33;;;;;;;79.22;44.33;;;;;;;9.19;65.79;100804.50;2091079;85;31489;-61
2021/11/12 13:24:32;;;;;;;72.60;44.00;;;;;;;9.15;65.87;100802.00;2119372;83;33645;-61
2021/11/12 13:27:33;;;;;;;75.52;43.87;;;;;;;9.06;65.86;100799.19;2120933;83;29455;-61
2021/11/12 13:30:35;;;;;;;71.70;43.83;;;;;;;9.05;66.06;100799.64;2117917;83;27701;-60
2021/11/12 13:33:57;;;;;;;68.57;43.13;;;;;;;9.03;65.89;100793.95;2150159;82;29972;-61
2021/11/12 13:36:59;;;;;;;67.72;41.35;;;;;;;8.99;65.93;100802.99;2130995;83;32240;-62
2021/11/12 13:40:12;;;;;;;66.70;41.00;;;;;;;8.90;65.88;100800.17;2131289;82;34095;-64
2021/11/12 13:43:26;;;;;;;73.85;42.38;;;;;;;8.85;66.04;100805.69;2123502;82;30534;-63
2021/11/12 13:46:27;;;;;;;67.75;39.73;;;;;;;8.76;65.71;100804.20;2101020;83;27662;-62
2021/11/12 13:49:43;;;;;;;67.80;38.42;;;;;;;8.69;65.96;100802.65;2086226;83;29908;-65
2021/11/12 13:52:46;;;;;;;67.08;40.85;;;;;;;8.59;65.92;100807.45;2084517;84;31981;-64
2021/11/12 13:55:48;;;;;;;62.60;40.08;;;;;;;8.49;65.99;100796.65;2115169;83;34358;-70
2021/11/12 13:59:10;;;;;;;74.37;42.83;;;;;;;8.42;65.93;100797.28;2115199;84;30206;-70
2021/11/12 14:02:12;;;;;;;69.27;39.25;;;;;;;8.40;66.11;100795.59;2115380;84;27714;-75
2021/11/12 14:05:15;;;;;;;69.40;40.45;;;;;;;8.34;65.93;100796.67;2115188;84;29767;-69
2021/11/12 14:08:17;;;;;;;74.37;43.73;;;;;;;8.22;65.84;100801.94;2108487;84;31023;-69
2021/11/12 14:11:27;;;;;;;70.50;43.02;;;;;;;8.16;65.88;100794.11;2082643;84;33018;-65
2021/11/12 14:14:30;;;;;;;75.08;42.70;;;;;;;8.10;66.16;100792.99;2082498;84;30232;-62
2021/11/12 14:17:34;;;;;;;74.65;42.45;;;;;;;8.03;66.04;100789.17;2116610;84;27671;-61
2021/11/12 14:20:36;;;;;;;71.50;41.58;;;;;;;7.99;66.21;100798.66;2099227;84;28691;-61
2021/11/12 14:37:11;;;;;;;87.97;46.13;;;;;;;7.71;66.65;100764.80;2091080;85;29112;-62
2021/11/12 14:40:03;;;;;;;85.53;46.15;;;;;;;7.62;66.83;100762.42;2112814;83;30904;-62
2021/11/12 14:49:36;;;;;;;98.17;51.50;;;;;;;7.43;66.82;100757.19;2076532;84;27821;-74
2021/11/12 14:52:36;;;;;;;101.25;52.33;;;;;;;7.32;66.93;100752.61;2078333;84;29990;-62
2021/11/12 14:55:44;;;;;;;104.00;51.25;;;;;;;7.27;67.01;100741.23;2076343;85;32320;-63
2021/11/12 14:59:15;;;;;;;100.55;53.05;;;;;;;7.20;67.18;100748.50;2076316;85;33763;-63
2021/11/12 15:02:13;;;;;;;102.30;53.85;;;;;;;7.19;67.36;100745.45;2085984;85;30193;-64
2021/11/12 15:05:15;;;;;;;103.00;54.98;;;;;;;7.18;67.48;100741.03;2095011;85;27765;-65
2021/11/12 15:08:25;;;;;;;101.72;52.95;;;;;;;7.15;67.54;100745.97;2085785;85;29913;-69
2021/11/12 15:11:28;;;;;;;107.47;55.75;;;;;;;7.13;67.56;100744.28;2069027;85;31013;-73
2021/11/12 15:14:34;;;;;;;107.47;54.40;;;;;;;7.09;67.64;100743.94;2070382;85;33068;-73
2021/11/12 15:17:35;;;;;;;121.53;60.80;;;;;;;7.05;67.69;100741.83;2077638;85;30534;-75
2021/11/12 15:20:37;;;;;;;117.25;58.68;;;;;;;7.05;67.81;100751.16;2077175;85;27659;-68
2021/11/12 15:27:04;;;;;;;114.25;59.67;;;;;;;7.02;67.97;100749.90;2119481;83;31842;-70
2021/11/12 15:33:20;;;;;;;116.65;62.30;;;;;;;6.91;68.02;100745.34;2119673;84;30036;-63
2021/11/12 15:36:25;;;;;;;118.77;62.10;;;;;;;6.88;68.15;100751.59;2118385;83;27744;-70
2021/11/12 15:48:47;;;;;;;124.62;66.20;;;;;;;6.85;68.46;100743.72;2124587;83;29315;-67
2021/11/12 15:51:57;;;;;;;117.15;61.42;;;;;;;6.84;68.55;100749.95;2130513;83;27716;-72
2021/11/12 15:58:27;;;;;;;126.87;67.92;;;;;;;6.86;68.64;100745.91;2130386;83;32209;-73
2021/11/12 16:07:56;;;;;;;123.55;66.42;;;;;;;6.83;68.86;100745.07;2147656;82;27646;-67
2021/11/12 16:11:21;;;;;;;122.90;65.92;;;;;;;6.82;68.91;100741.98;2110413;84;29383;-72
2021/11/12 16:14:14;;;;;;;129.95;67.47;;;;;;;6.83;69.05;100744.22;2117742;82;32107;-68
2021/11/12 16:17:28;;;;;;;122.42;63.52;;;;;;;6.79;69.11;100742.54;2084834;85;34330;-74
2021/11/12 16:23:48;;;;;;;122.87;62.70;;;;;;;6.78;69.19;100755.44;2106785;84;27761;-73
2021/11/12 16:26:42;;;;;;;116.82;64.07;;;;;;;6.79;69.30;100759.84;2058175;86;29904;-64
2021/11/12 16:29:48;;;;;;;109.75;59.20;;;;;;;6.81;69.37;100755.36;2095673;84;31012;-66
2021/11/12 16:32:57;;;;;;;121.77;61.45;;;;;;;6.80;69.48;100752.28;2103117;83;34308;-63
2021/11/12 16:36:01;;;;;;;120.13;64.17;;;;;;;6.79;69.50;100751.39;2094167;84;30391;-62
2021/11/12 16:39:00;;;;;;;119.50;63.63;;;;;;;6.79;69.47;100743.39;2094355;84;27783;-63
2021/11/12 16:45:21;;;;;;;121.60;63.23;;;;;;;6.76;69.61;100736.84;2053721;86;31047;-63
2021/11/12 16:54:45;;;;;;;123.90;63.42;;;;;;;6.69;69.98;100726.82;2025425;87;27894;-63
2021/11/12 16:57:53;;;;;;;127.97;63.95;;;;;;;6.71;70.07;100738.75;2036705;87;28642;-63
2021/11/12 17:07:35;;;;;;;137.57;67.40;;;;;;;6.62;70.60;100735.02;2095606;84;30453;-64
2021/11/12 17:10:31;;;;;;;136.90;65.80;;;;;;;6.62;70.75;100738.53;2094071;84;28353;-65
2021/11/12 17:46:22;;;;;;;154.25;73.02;;;;;;;6.69;71.36;100732.15;1938912;91;29899;-63
2021/11/12 17:49:36;;;;;;;148.60;71.22;;;;;;;6.68;71.47;100732.17;1941455;91;31432;-63
2021/11/12 17:53:02;;;;;;;138.40;66.57;;;;;;;6.62;71.56;100735.87;1948432;91;33603;-63
2021/11/12 18:02:25;;;;;;;139.03;66.80;;;;;;;6.52;71.78;100737.04;1903223;93;29918;-63
2021/11/12 18:25:34;;;;;;;117.15;56.83;;;;;;;6.43;72.17;100702.66;2015183;88;35175;-67
2021/11/12 21:45:22;;;;;;;99.92;48.58;;;;;;;6.52;73.89;100526.30;2111570;84;29568;-63
2021/11/12 21:48:24;;;;;;;84.28;45.05;;;;;;;6.52;73.85;100529.43;2089279;83;31022;-63
2021/11/12 21:51:32;;;;;;;89.05;49.08;;;;;;;6.53;73.94;100525.86;2106369;83;34223;-65
2021/11/12 21:54:35;;;;;;;95.47;46.80;;;;;;;6.51;73.85;100520.55;2126980;83;29784;-69
2021/11/12 21:57:37;;;;;;;83.20;42.98;;;;;;;6.50;73.86;100525.94;2127960;83;27684;-66
2021/11/12 22:00:39;;;;;;;83.72;43.05;;;;;;;6.48;73.83;100529.95;2127417;83;29943;-64
2021/11/12 22:03:44;;;;;;;83.33;41.20;;;;;;;6.47;73.88;100517.56;2127349;83;32066;-67
2021/11/12 22:06:46;;;;;;;72.47;39.42;;;;;;;6.47;73.87;100517.56;2107513;83;37295;-70
2021/11/12 22:09:47;;;;;;;79.95;39.90;;;;;;;6.45;73.82;100518.09;2103608;84;30500;-65
2021/11/12 22:12:49;;;;;;;83.70;42.00;;;;;;;6.45;73.86;100518.09;2135395;83;27565;-70
2021/11/12 22:15:51;;;;;;;68.50;34.92;;;;;;;6.44;73.81;100511.02;2103526;84;28576;-66
2021/11/12 22:18:53;;;;;;;77.70;39.92;;;;;;;6.43;73.89;100510.61;2134000;83;31633;-64
2021/11/12 22:21:58;;;;;;;64.67;35.60;;;;;;;6.41;73.81;100509.78;2103137;84;33807;-64
2021/11/12 22:25:00;;;;;;;71.62;35.75;;;;;;;6.38;73.84;100501.41;2135302;83;29349;-63
2021/11/12 22:28:03;;;;;;;63.90;32.85;;;;;;;6.38;73.79;100504.06;2104167;83;27582;-63
2021/11/12 22:31:05;;;;;;;68.00;34.80;;;;;;;6.38;73.85;100497.88;2162471;82;28217;-62
2021/11/12 22:34:07;;;;;;;69.05;36.30;;;;;;;6.37;73.77;100497.00;2058254;84;32312;-64
2021/11/12 22:37:09;;;;;;;66.53;35.83;;;;;;;6.39;73.84;100497.83;2068121;86;33882;-63
2021/11/12 22:40:12;;;;;;;63.68;34.03;;;;;;;6.42;73.78;100492.89;2105140;83;30470;-63
2021/11/12 22:43:14;;;;;;;59.15;33.48;;;;;;;6.42;73.68;100484.02;2126944;83;27589;-64
2021/11/12 22:46:18;;;;;;;63.50;34.88;;;;;;;6.43;73.73;100483.11;2098376;84;29129;-62
2021/11/12 22:49:19;;;;;;;59.55;32.98;;;;;;;6.42;73.68;100478.70;2107112;83;30812;-63
2021/11/12 22:52:21;;;;;;;63.85;33.63;;;;;;;6.39;73.65;100481.86;2123227;83;33537;-63
2021/11/12 22:55:23;;;;;;;65.30;34.78;;;;;;;6.38;73.69;100478.78;2120376;84;29753;-63
2021/11/12 22:58:25;;;;;;;69.20;35.28;;;;;;;6.38;73.65;100471.27;2120501;83;27626;-63
2021/11/12 23:01:31;;;;;;;62.88;34.03;;;;;;;6.37;73.67;100473.52;2122419;83;28964;-64
2021/11/12 23:04:32;;;;;;;63.98;34.10;;;;;;;6.36;73.69;100458.03;2121195;83;31001;-62
2021/11/12 23:07:34;;;;;;;69.95;35.70;;;;;;;6.33;73.70;100463.44;2150455;82;34151;-63
2021/11/12 23:10:36;;;;;;;66.35;32.08;;;;;;;6.32;73.71;100463.46;2119090;83;29710;-62
2021/11/12 23:13:40;;;;;;;65.12;36.50;;;;;;;6.31;73.74;100458.61;2101514;83;27713;-64
2021/11/12 23:16:41;;;;;;;62.58;31.90;;;;;;;6.30;73.75;100448.89;2122606;83;28543;-62
2021/11/12 23:19:43;;;;;;;70.47;37.03;;;;;;;6.29;73.87;100464.44;2094011;84;31413;-63
2021/11/12 23:22:45;;;;;;;64.20;35.85;;;;;;;6.28;73.81;100456.52;2150776;82;33881;-66